createdAt,value
2022-11-18T00:01:20.121Z,7.44
2022-11-18T00:03:47.107Z,6.15
2022-11-18T00:06:16.266Z,7.44
2022-11-18T00:08:43.322Z,7.44
2022-11-18T00:11:34.023Z,6.81
2022-11-18T00:14:19.228Z,7.44
2022-11-18T00:17:01.147Z,7.43
2022-11-18T00:19:33.379Z,6.93
2022-11-18T00:22:02.160Z,6.86
2022-11-18T00:24:28.892Z,7.40
2022-11-18T00:26:55.606Z,7.40
2022-11-18T00:29:23.109Z,6.57
2022-11-18T00:31:49.982Z,7.42
2022-11-18T00:34:17.861Z,7.43
2022-11-18T00:36:45.316Z,7.45
2022-11-18T00:39:13.242Z,7.31
2022-11-18T00:41:58.497Z,7.45
2022-11-18T00:44:25.134Z,7.41
2022-11-18T00:46:51.978Z,7.40
2022-11-18T00:49:18.722Z,7.39
2022-11-18T00:51:45.701Z,7.40
2022-11-18T00:54:12.629Z,6.69
2022-11-18T00:56:39.235Z,7.39
2022-11-18T00:59:05.892Z,7.30
2022-11-18T01:01:32.605Z,7.38
2022-11-18T01:03:59.255Z,7.37
2022-11-18T01:06:25.902Z,7.36
2022-11-18T01:08:52.454Z,7.24
2022-11-18T01:11:37.670Z,7.36
2022-11-18T01:14:04.387Z,6.10
2022-11-18T01:16:31.230Z,6.68
2022-11-18T01:18:58.045Z,7.14
2022-11-18T01:21:25.215Z,7.30
2022-11-18T01:23:51.850Z,6.37
2022-11-18T01:26:18.798Z,5.75
2022-11-18T01:28:45.658Z,6.96
2022-11-18T01:31:19.215Z,7.28
2022-11-18T01:33:46.976Z,7.29
2022-11-18T01:36:22.485Z,7.29
2022-11-18T01:38:49.740Z,6.22
2022-11-18T01:41:17.500Z,7.31
2022-11-18T01:43:51.881Z,7.30
2022-11-18T01:46:19.332Z,7.30
2022-11-18T01:48:48.216Z,6.56
2022-11-18T01:51:22.317Z,6.30
2022-11-18T01:54:00.157Z,7.30
2022-11-18T01:56:36.674Z,7.30
2022-11-18T01:59:07.653Z,7.29
2022-11-18T02:01:34.414Z,7.24
2022-11-18T02:04:01.154Z,7.24
2022-11-18T02:06:27.873Z,7.26
2022-11-18T02:08:55.857Z,6.19
2022-11-18T02:11:41.108Z,6.18
2022-11-18T02:14:09.868Z,7.27
2022-11-18T02:17:04.325Z,6.92
2022-11-18T02:19:46.037Z,7.24
2022-11-18T02:22:12.679Z,7.24
2022-11-18T02:25:03.934Z,7.26
2022-11-18T02:27:33.495Z,7.24
2022-11-18T02:30:08.780Z,6.86
2022-11-18T02:32:48.870Z,7.23
2022-11-18T02:35:53.970Z,7.26
2022-11-18T02:38:35.008Z,7.26
2022-11-18T02:41:09.279Z,7.25
2022-11-18T02:43:47.140Z,7.25
2022-11-18T02:46:20.044Z,6.38
2022-11-18T02:48:50.925Z,7.27
2022-11-18T02:51:23.290Z,6.06
2022-11-18T02:53:51.071Z,7.26
2022-11-18T02:56:19.844Z,5.99
2022-11-18T02:58:46.482Z,5.85
2022-11-18T03:01:24.688Z,7.28
2022-11-18T03:03:51.417Z,7.28
2022-11-18T03:06:38.677Z,7.05
2022-11-18T03:09:10.957Z,7.25
2022-11-18T03:11:48.185Z,7.07
2022-11-18T03:14:50.304Z,7.26
2022-11-18T03:17:40.638Z,7.25
2022-11-18T03:20:22.623Z,7.24
2022-11-18T03:23:06.180Z,7.23
2022-11-18T03:25:59.611Z,6.14
2022-11-18T03:28:29.163Z,7.25
2022-11-18T03:31:06.393Z,6.35
2022-11-18T03:33:40.889Z,6.65
2022-11-18T03:36:11.231Z,7.25
2022-11-18T03:38:42.421Z,7.24
2022-11-18T03:41:11.861Z,7.23
2022-11-18T03:43:44.186Z,7.24
2022-11-18T03:46:38.174Z,6.79
2022-11-18T03:49:07.861Z,7.11
2022-11-18T03:51:44.435Z,7.23
2022-11-18T03:54:18.790Z,7.22
2022-11-18T03:56:54.887Z,6.85
2022-11-18T03:59:33.395Z,7.21
2022-11-18T04:02:10.211Z,6.03
2022-11-18T04:04:37.072Z,6.22
2022-11-18T04:07:20.853Z,7.22
2022-11-18T04:09:58.457Z,6.17
2022-11-18T04:12:30.217Z,7.19
2022-11-18T04:14:56.923Z,6.74
2022-11-18T04:17:26.989Z,7.18
2022-11-18T04:19:53.945Z,7.19
2022-11-18T04:22:20.864Z,7.14
2022-11-18T04:24:47.500Z,6.48
2022-11-18T04:27:14.153Z,6.67
2022-11-18T04:29:40.736Z,6.95
2022-11-18T04:32:07.415Z,7.02
2022-11-18T04:34:34.125Z,6.35
2022-11-18T04:37:01.081Z,7.15
2022-11-18T04:39:28.439Z,7.15
2022-11-18T04:41:57.866Z,7.15
2022-11-18T04:44:32.540Z,6.70
2022-11-18T04:47:02.567Z,5.66
2022-11-18T04:49:29.611Z,7.15
2022-11-18T04:51:57.358Z,6.97
2022-11-18T04:54:25.424Z,6.80
2022-11-18T04:56:52.393Z,6.46
2022-11-18T04:59:21.577Z,7.14
2022-11-18T05:01:49.664Z,7.14
2022-11-18T05:04:21.555Z,7.12
2022-11-18T05:06:48.756Z,6.11
2022-11-18T05:09:16.697Z,7.12
2022-11-18T05:12:02.794Z,5.81
2022-11-18T05:14:30.567Z,7.13
2022-11-18T05:16:58.704Z,6.33
2022-11-18T05:19:25.488Z,6.57
2022-11-18T05:21:52.415Z,7.13
2022-11-18T05:24:19.070Z,6.32
2022-11-18T05:26:45.911Z,7.12
2022-11-18T05:29:13.187Z,4.92
2022-11-18T05:31:39.734Z,7.00
2022-11-18T05:34:06.388Z,7.00
2022-11-18T05:36:32.972Z,6.27
2022-11-18T05:39:00.113Z,5.90
2022-11-18T05:41:46.167Z,7.09
2022-11-18T05:44:13.002Z,7.08
2022-11-18T05:46:39.549Z,5.93
2022-11-18T05:49:06.242Z,5.96
2022-11-18T05:51:32.962Z,7.08
2022-11-18T05:54:04.338Z,7.08
2022-11-18T05:56:35.657Z,7.06
2022-11-18T05:59:02.505Z,6.35
2022-11-18T06:01:40.808Z,6.72
2022-11-18T06:04:33.320Z,7.08
2022-11-18T06:07:07.357Z,7.08
2022-11-18T06:09:37.645Z,6.35
2022-11-18T06:12:05.418Z,6.98
2022-11-18T06:14:39.147Z,5.15
2022-11-18T06:17:11.781Z,6.77
2022-11-18T06:19:38.572Z,5.94
2022-11-18T06:22:05.829Z,6.99
2022-11-18T06:24:32.691Z,7.08
2022-11-18T06:26:59.992Z,6.86
2022-11-18T06:29:28.095Z,7.09
2022-11-18T06:31:54.984Z,6.33
2022-11-18T06:34:21.608Z,7.11
2022-11-18T06:36:48.318Z,7.10
2022-11-18T06:39:15.085Z,6.19
2022-11-18T06:41:41.949Z,6.78
2022-11-18T06:44:08.542Z,7.10
2022-11-18T06:47:07.069Z,6.42
2022-11-18T06:49:33.655Z,7.11
2022-11-18T06:52:00.226Z,5.72
2022-11-18T06:54:26.829Z,7.13
2022-11-18T06:56:53.804Z,6.26
2022-11-18T06:59:23.861Z,7.14
2022-11-18T07:01:52.592Z,7.17
2022-11-18T07:04:19.233Z,7.19
2022-11-18T07:06:46.113Z,6.53
2022-11-18T07:09:12.692Z,6.75
2022-11-18T07:11:41.242Z,7.22
2022-11-18T07:14:09.025Z,7.24
2022-11-18T07:16:36.609Z,6.52
2022-11-18T07:19:09.684Z,6.55
2022-11-18T07:21:36.782Z,6.57
2022-11-18T07:24:07.269Z,7.25
2022-11-18T07:26:35.448Z,7.23
2022-11-18T07:29:02.017Z,7.24
2022-11-18T07:31:29.644Z,7.26
2022-11-18T07:33:56.482Z,6.79
2022-11-18T07:36:28.613Z,6.73
2022-11-18T07:39:02.015Z,7.27
2022-11-18T07:41:30.122Z,7.30
2022-11-18T07:44:00.827Z,7.32
2022-11-18T07:46:37.797Z,7.34
2022-11-18T07:49:06.621Z,7.31
2022-11-18T07:51:36.397Z,7.29
2022-11-18T07:54:14.009Z,7.41
2022-11-18T07:56:40.779Z,7.33
2022-11-18T07:59:08.179Z,7.45
2022-11-18T08:01:35.498Z,7.48
2022-11-18T08:04:10.684Z,7.49
2022-11-18T08:06:38.072Z,6.56
2022-11-18T08:09:06.341Z,7.53
2022-11-18T08:11:33.361Z,7.51
2022-11-18T08:14:00.182Z,7.23
2022-11-18T08:16:27.354Z,7.55
2022-11-18T08:18:54.204Z,7.58
2022-11-18T08:21:22.935Z,7.59
2022-11-18T08:23:51.555Z,6.45
2022-11-18T08:26:18.452Z,6.50
2022-11-18T08:28:45.547Z,7.02
2022-11-18T08:31:24.790Z,7.09
2022-11-18T08:33:59.935Z,7.59
2022-11-18T08:36:29.677Z,6.64
2022-11-18T08:38:57.044Z,7.57
2022-11-18T08:41:38.944Z,7.48
2022-11-18T08:44:06.490Z,7.59
2022-11-18T08:46:33.526Z,7.61
2022-11-18T08:49:00.401Z,7.40
2022-11-18T08:51:28.536Z,7.64
2022-11-18T08:53:55.666Z,6.12
2022-11-18T08:56:23.782Z,7.70
2022-11-18T08:58:50.534Z,7.21
2022-11-18T09:01:17.437Z,6.78
2022-11-18T09:03:44.131Z,7.85
2022-11-18T09:06:15.148Z,7.89
2022-11-18T09:08:42.139Z,6.39
2022-11-18T09:11:23.209Z,7.90
2022-11-18T09:16:41.081Z,7.94
2022-11-18T09:21:54.223Z,7.94
2022-11-18T09:24:21.131Z,7.94
2022-11-18T09:26:49.828Z,7.96
2022-11-18T09:29:16.633Z,7.18
2022-11-18T09:31:43.245Z,7.96
2022-11-18T09:34:10.426Z,7.82
2022-11-18T09:36:37.381Z,7.53
2022-11-18T09:39:04.197Z,7.22
2022-11-18T09:41:49.647Z,7.99
2022-11-18T09:44:38.240Z,7.99
2022-11-18T09:47:24.865Z,8.03
2022-11-18T09:49:52.302Z,7.30
2022-11-18T09:52:21.110Z,6.84
2022-11-18T09:54:48.789Z,8.09
2022-11-18T09:57:31.094Z,8.10
2022-11-18T09:59:58.826Z,8.13
2022-11-18T10:02:27.972Z,8.15
2022-11-18T10:05:08.363Z,7.72
2022-11-18T10:07:48.869Z,8.12
2022-11-18T10:10:22.589Z,8.08
2022-11-18T10:13:03.033Z,7.65
2022-11-18T10:16:16.921Z,7.99
2022-11-18T10:19:00.160Z,7.24
2022-11-18T10:22:16.813Z,8.06
2022-11-18T10:25:01.440Z,8.08
2022-11-18T10:27:38.137Z,8.10
2022-11-18T10:30:13.824Z,8.16
2022-11-18T10:33:19.772Z,8.17
2022-11-18T10:35:46.430Z,7.22
2022-11-18T10:38:12.966Z,8.18
2022-11-18T10:40:46.888Z,7.86
2022-11-18T10:43:44.091Z,8.18
2022-11-18T10:46:18.133Z,8.22
2022-11-18T10:48:45.030Z,8.26
2022-11-18T10:51:23.100Z,7.94
2022-11-18T10:53:49.763Z,7.11
2022-11-18T10:56:16.943Z,8.22
2022-11-18T10:58:47.905Z,8.22
2022-11-18T11:01:26.718Z,8.21
2022-11-18T11:03:59.272Z,8.22
2022-11-18T11:06:31.114Z,8.19
2022-11-18T11:09:30.314Z,8.18
2022-11-18T11:12:03.810Z,7.42
2022-11-18T11:14:53.737Z,8.10
2022-11-18T11:17:29.090Z,8.13
2022-11-18T11:20:17.140Z,7.00
2022-11-18T11:22:44.770Z,7.75
2022-11-18T11:28:36.981Z,7.47
2022-11-18T11:31:03.534Z,8.02
2022-11-18T11:34:03.138Z,8.03
2022-11-18T11:36:49.029Z,8.01
2022-11-18T11:39:34.076Z,8.00
2022-11-18T11:42:21.904Z,7.98
2022-11-18T11:45:13.445Z,7.96
2022-11-18T11:47:50.421Z,7.91
2022-11-18T11:50:27.021Z,7.91
2022-11-18T11:53:20.564Z,7.92
2022-11-18T11:56:09.056Z,7.97
2022-11-18T11:58:44.497Z,7.96
2022-11-18T12:01:20.460Z,7.94
2022-11-18T12:04:25.956Z,7.96
2022-11-18T12:06:54.909Z,7.99
2022-11-18T12:09:21.494Z,7.98
2022-11-18T12:12:35.584Z,8.02
2022-11-18T12:15:05.087Z,7.99
2022-11-18T12:17:37.742Z,7.95
2022-11-18T12:20:43.130Z,8.00
2022-11-18T12:23:21.303Z,8.00
2022-11-18T12:25:47.768Z,8.00
2022-11-18T12:28:26.217Z,8.00
2022-11-18T12:31:23.669Z,8.03
2022-11-18T12:33:54.522Z,8.01
2022-11-18T12:36:31.633Z,7.67
2022-11-18T12:39:19.091Z,7.61
2022-11-18T12:42:04.203Z,8.07
2022-11-18T12:44:31.336Z,8.07
2022-11-18T12:47:02.701Z,8.06
2022-11-18T12:49:29.055Z,8.04
2022-11-18T12:51:55.576Z,8.04
2022-11-18T12:54:30.835Z,8.04
2022-11-18T12:57:15.527Z,8.02
2022-11-18T12:59:42.119Z,7.91
2022-11-18T13:02:11.883Z,7.98
2022-11-18T13:04:45.043Z,7.97
2022-11-18T13:07:32.539Z,7.88
2022-11-18T13:10:00.641Z,6.80
2022-11-18T13:12:29.577Z,7.98
2022-11-18T13:15:14.685Z,7.95
2022-11-18T13:17:52.306Z,7.61
2022-11-18T13:20:33.686Z,7.92
2022-11-18T13:23:19.823Z,7.90
2022-11-18T13:25:47.870Z,7.89
2022-11-18T13:28:45.748Z,7.87
2022-11-18T13:31:21.275Z,7.87
2022-11-18T13:33:47.970Z,6.71
2022-11-18T13:36:19.427Z,6.89
2022-11-18T13:39:02.650Z,7.75
2022-11-18T13:41:34.053Z,7.78
2022-11-18T13:44:25.528Z,7.77
2022-11-18T13:46:59.245Z,7.81
2022-11-18T13:49:43.113Z,6.93
2022-11-18T13:52:17.954Z,7.05
2022-11-18T13:54:45.770Z,7.43
2022-11-18T13:57:23.200Z,7.88
2022-11-18T13:59:51.121Z,7.76
2022-11-18T14:02:18.677Z,7.03
2022-11-18T14:04:58.058Z,6.93
2022-11-18T14:07:35.088Z,7.81
2022-11-18T14:10:07.606Z,7.09
2022-11-18T14:12:35.798Z,6.43
2022-11-18T14:15:22.836Z,7.74
2022-11-18T14:17:54.980Z,7.74
2022-11-18T14:20:21.888Z,7.24
2022-11-18T14:22:52.798Z,7.75
2022-11-18T14:25:25.787Z,6.79
2022-11-18T14:27:57.303Z,7.73
2022-11-18T14:30:28.390Z,7.70
2022-11-18T14:33:15.905Z,7.67
2022-11-18T14:35:47.709Z,7.64
2022-11-18T14:41:07.227Z,7.19
2022-11-18T14:43:34.200Z,7.59
2022-11-18T14:46:07.073Z,7.59
2022-11-18T14:48:33.820Z,6.28
2022-11-18T14:51:00.655Z,7.59
2022-11-18T14:53:27.476Z,7.53
2022-11-18T14:55:56.880Z,7.10
2022-11-18T14:58:23.611Z,7.45
2022-11-18T15:00:50.505Z,7.52
2022-11-18T15:03:17.420Z,6.72
2022-11-18T15:05:44.730Z,7.17
2022-11-18T15:08:11.333Z,7.51
2022-11-18T15:10:38.058Z,6.53
2022-11-18T15:13:04.663Z,6.51
2022-11-18T15:15:31.436Z,6.74
2022-11-18T15:17:58.033Z,7.49
2022-11-18T15:20:24.756Z,7.46
2022-11-18T15:22:51.426Z,7.46
2022-11-18T15:25:18.084Z,7.31
2022-11-18T15:27:44.637Z,6.59
2022-11-18T15:30:13.861Z,7.38
2022-11-18T15:32:40.614Z,6.94
2022-11-18T15:35:07.950Z,6.29
2022-11-18T15:37:34.471Z,7.30
2022-11-18T15:40:01.004Z,7.31
2022-11-18T15:42:28.175Z,6.56
2022-11-18T15:44:54.726Z,6.82
2022-11-18T15:47:21.345Z,7.25
2022-11-18T15:49:47.876Z,7.24
2022-11-18T15:52:14.520Z,7.22
2022-11-18T15:54:41.117Z,6.29
2022-11-18T15:57:07.752Z,7.09
2022-11-18T15:59:34.356Z,6.45
2022-11-18T16:02:01.000Z,6.98
2022-11-18T16:04:27.755Z,6.38
2022-11-18T16:06:54.428Z,7.15
2022-11-18T16:09:21.737Z,6.09
2022-11-18T16:12:07.362Z,7.10
2022-11-18T16:14:38.040Z,7.09
2022-11-18T16:17:04.577Z,6.87
2022-11-18T16:19:33.545Z,7.09
2022-11-18T16:22:00.225Z,6.72
2022-11-18T16:24:29.859Z,6.12
2022-11-18T16:26:56.905Z,7.05
2022-11-18T16:29:24.493Z,7.06
2022-11-18T16:31:52.773Z,6.91
2022-11-18T16:34:20.983Z,7.03
2022-11-18T16:36:50.389Z,6.66
2022-11-18T16:39:19.183Z,7.03
2022-11-18T16:41:46.363Z,7.01
2022-11-18T16:44:17.093Z,5.98
2022-11-18T16:46:48.782Z,6.96
2022-11-18T16:49:17.121Z,6.56
2022-11-18T16:51:45.933Z,6.59
2022-11-18T16:54:22.743Z,6.69
2022-11-18T16:56:50.606Z,6.91
2022-11-18T16:59:22.535Z,6.94
2022-11-18T17:01:50.976Z,6.90
2022-11-18T17:04:18.379Z,6.88
2022-11-18T17:06:46.364Z,5.87
2022-11-18T17:09:15.529Z,6.87
2022-11-18T17:11:42.538Z,6.82
2022-11-18T17:14:09.372Z,6.80
2022-11-18T17:16:35.954Z,6.77
2022-11-18T17:19:07.154Z,6.75
2022-11-18T17:21:38.318Z,6.73
2022-11-18T17:24:05.473Z,6.72
2022-11-18T17:26:32.103Z,6.70
2022-11-18T17:28:58.740Z,6.72
2022-11-18T17:31:25.857Z,6.68
2022-11-18T17:33:54.419Z,6.65
2022-11-18T17:36:23.708Z,6.63
2022-11-18T17:38:52.797Z,6.65
2022-11-18T17:41:41.207Z,6.55
2022-11-18T17:44:09.945Z,6.29
2022-11-18T17:46:38.556Z,6.61
2022-11-18T17:49:10.002Z,6.59
2022-11-18T17:51:36.732Z,6.58
2022-11-18T17:54:03.413Z,5.34
2022-11-18T17:56:30.078Z,5.17
2022-11-18T17:58:56.890Z,6.57
2022-11-18T18:01:24.008Z,5.54
2022-11-18T18:03:50.785Z,6.20
2022-11-18T18:06:18.976Z,6.55
2022-11-18T18:08:45.588Z,6.53
2022-11-18T18:11:14.926Z,6.54
2022-11-18T18:14:02.117Z,6.28
2022-11-18T18:16:30.654Z,6.50
2022-11-18T18:19:04.698Z,6.49
2022-11-18T18:21:31.510Z,6.40
2022-11-18T18:23:58.315Z,5.60
2022-11-18T18:26:29.902Z,6.49
2022-11-18T18:28:59.495Z,6.47
2022-11-18T18:31:26.779Z,5.83
2022-11-18T18:33:53.382Z,6.45
2022-11-18T18:36:20.548Z,6.45
2022-11-18T18:38:47.454Z,6.48
2022-11-18T18:41:17.231Z,6.34
2022-11-18T18:43:44.578Z,6.44
2022-11-18T18:46:29.094Z,5.32
2022-11-18T18:49:06.080Z,5.49
2022-11-18T18:51:37.479Z,6.41
2022-11-18T18:54:04.059Z,6.37
2022-11-18T18:56:30.630Z,6.39
2022-11-18T18:58:57.728Z,5.43
2022-11-18T19:01:25.282Z,6.37
2022-11-18T19:04:00.558Z,5.58
2022-11-18T19:09:27.517Z,5.87
2022-11-18T19:12:12.631Z,5.29
2022-11-18T19:14:39.578Z,6.23
2022-11-18T19:17:10.616Z,6.21
2022-11-18T19:19:58.027Z,6.21
2022-11-18T19:22:24.792Z,5.47
2022-11-18T19:24:51.700Z,5.99
2022-11-18T19:27:19.575Z,5.96
2022-11-18T19:29:46.395Z,6.10
2022-11-18T19:32:13.459Z,5.43
2022-11-18T19:34:40.159Z,6.06
2022-11-18T19:37:06.754Z,5.63
2022-11-18T19:39:33.490Z,2.15
2022-11-18T19:42:00.032Z,5.99
2022-11-18T19:44:26.758Z,5.88
2022-11-18T19:46:53.528Z,5.85
2022-11-18T19:49:20.610Z,5.80
2022-11-18T19:51:47.453Z,5.72
2022-11-18T19:54:14.090Z,5.53
2022-11-18T19:56:40.785Z,5.34
2022-11-18T19:59:07.362Z,4.48
2022-11-18T20:01:33.993Z,3.39
2022-11-18T20:04:05.609Z,5.31
2022-11-18T20:06:34.908Z,3.66
2022-11-18T20:09:02.277Z,4.32
2022-11-18T20:11:28.958Z,4.40
2022-11-18T20:13:55.543Z,5.08
2022-11-18T20:16:24.859Z,5.06
2022-11-18T20:18:59.694Z,4.25
2022-11-18T20:21:27.885Z,5.05
2022-11-18T20:23:57.325Z,4.13
2022-11-18T20:26:26.510Z,4.97
2022-11-18T20:28:57.389Z,5.00
2022-11-18T20:31:24.670Z,4.95
2022-11-18T20:33:53.148Z,4.89
2022-11-18T20:36:25.055Z,4.85
2022-11-18T20:38:53.857Z,4.64
2022-11-18T20:41:21.569Z,4.59
2022-11-18T20:43:48.410Z,4.48
2022-11-18T20:46:21.443Z,4.34
2022-11-18T20:48:49.162Z,4.25
2022-11-18T20:51:17.370Z,4.03
2022-11-18T20:53:44.006Z,3.25
2022-11-18T20:56:17.396Z,3.93
2022-11-18T20:58:44.681Z,3.90
2022-11-18T21:01:12.475Z,3.84
2022-11-18T21:03:40.315Z,3.75
2022-11-18T21:06:14.306Z,2.84
2022-11-18T21:08:42.521Z,3.60
2022-11-18T21:11:11.311Z,3.52
2022-11-18T21:13:57.183Z,3.47
2022-11-18T21:16:24.149Z,3.32
2022-11-18T21:18:50.957Z,3.22
2022-11-18T21:21:36.056Z,3.31
2022-11-18T21:24:03.490Z,3.31
2022-11-18T21:26:32.595Z,2.42
2022-11-18T21:29:01.280Z,3.27
2022-11-18T21:31:28.912Z,3.22
2022-11-18T21:33:56.961Z,2.08
2022-11-18T21:36:25.563Z,3.05
2022-11-18T21:38:52.756Z,3.06
2022-11-18T21:41:19.618Z,1.99
2022-11-18T21:46:34.777Z,2.99
2022-11-18T21:49:02.468Z,2.90
2022-11-18T21:51:31.209Z,2.49
2022-11-18T21:53:58.905Z,2.88
2022-11-18T21:56:29.276Z,2.14
2022-11-18T21:58:57.049Z,2.83
2022-11-18T22:01:31.826Z,2.84
2022-11-18T22:04:01.542Z,1.46
2022-11-18T22:06:33.615Z,2.82
2022-11-18T22:09:01.247Z,1.08
2022-11-18T22:11:28.390Z,2.72
2022-11-18T22:13:55.245Z,2.74
2022-11-18T22:16:23.885Z,2.76
2022-11-18T22:18:57.332Z,2.74
2022-11-18T22:21:26.856Z,2.79
2022-11-18T22:23:57.167Z,1.64
2022-11-18T22:26:23.718Z,2.62
2022-11-18T22:28:55.422Z,2.74
2022-11-18T22:31:23.921Z,2.70
2022-11-18T22:33:51.515Z,2.64
2022-11-18T22:36:19.955Z,2.62
2022-11-18T22:38:46.842Z,2.64
2022-11-18T22:41:35.070Z,2.11
2022-11-18T22:44:07.369Z,2.61
2022-11-18T22:46:38.836Z,2.51
2022-11-18T22:49:07.245Z,2.60
2022-11-18T22:51:34.638Z,2.60
2022-11-18T22:54:37.719Z,1.55
2022-11-18T22:56:50.592Z,2.59
2022-11-18T22:59:17.578Z,2.49
2022-11-18T23:01:44.810Z,2.62
2022-11-18T23:04:11.342Z,2.04
2022-11-18T23:06:37.946Z,1.07
2022-11-18T23:09:04.790Z,2.60
2022-11-18T23:11:49.946Z,2.68
2022-11-18T23:14:16.659Z,2.20
2022-11-18T23:16:43.665Z,2.73
2022-11-18T23:19:13.231Z,2.75
2022-11-18T23:21:40.707Z,2.78
2022-11-18T23:24:07.729Z,1.26
2022-11-18T23:26:34.327Z,2.82
2022-11-18T23:29:00.873Z,2.84
2022-11-18T23:31:28.469Z,2.83
2022-11-18T23:33:56.585Z,2.84
2022-11-18T23:36:24.482Z,2.86
2022-11-18T23:38:52.622Z,2.85
2022-11-18T23:41:19.858Z,2.85
2022-11-18T23:43:48.219Z,2.44
2022-11-18T23:46:16.314Z,2.80
2022-11-18T23:48:43.503Z,1.66
2022-11-18T23:51:09.992Z,2.24
2022-11-18T23:53:37.252Z,2.78
2022-11-18T23:56:07.332Z,2.77
2022-11-18T23:58:33.915Z,1.94
